sensor_id;sensor_type;location;lat;lon;timestamp;temperature;humidity
11136;DHT22;5622;50.840;4.948;2022-10-16T00:00:39;13.70;99.90
11136;DHT22;5622;50.840;4.948;2022-10-16T00:06:31;13.70;99.90
11136;DHT22;5622;50.840;4.948;2022-10-16T00:08:58;13.60;99.90
11136;DHT22;5622;50.840;4.948;2022-10-16T00:11:27;13.60;99.90
11136;DHT22;5622;50.840;4.948;2022-10-16T00:13:57;13.60;99.90
11136;DHT22;5622;50.840;4.948;2022-10-16T00:16:25;13.60;99.90
11136;DHT22;5622;50.840;4.948;2022-10-16T00:18:53;13.50;99.90
11136;DHT22;5622;50.840;4.948;2022-10-16T00:21:22;13.50;99.90
11136;DHT22;5622;50.840;4.948;2022-10-16T00:23:54;13.50;99.90
11136;DHT22;5622;50.840;4.948;2022-10-16T00:26:21;13.50;99.90
11136;DHT22;5622;50.840;4.948;2022-10-16T00:28:49;13.50;99.90
11136;DHT22;5622;50.840;4.948;2022-10-16T00:31:18;13.50;99.90
11136;DHT22;5622;50.840;4.948;2022-10-16T00:33:46;13.50;99.90
11136;DHT22;5622;50.840;4.948;2022-10-16T00:36:15;13.50;99.90
11136;DHT22;5622;50.840;4.948;2022-10-16T00:38:43;13.50;99.90
11136;DHT22;5622;50.840;4.948;2022-10-16T00:41:14;13.50;99.90
11136;DHT22;5622;50.840;4.948;2022-10-16T00:43:43;13.50;99.90
11136;DHT22;5622;50.840;4.948;2022-10-16T00:46:14;13.50;99.90
11136;DHT22;5622;50.840;4.948;2022-10-16T00:48:43;13.50;99.90
11136;DHT22;5622;50.840;4.948;2022-10-16T00:51:12;13.50;99.90
11136;DHT22;5622;50.840;4.948;2022-10-16T00:53:39;13.60;99.90
11136;DHT22;5622;50.840;4.948;2022-10-16T00:56:06;13.60;99.90
11136;DHT22;5622;50.840;4.948;2022-10-16T00:58:35;13.60;99.90
11136;DHT22;5622;50.840;4.948;2022-10-16T01:01:02;13.60;99.90
11136;DHT22;5622;50.840;4.948;2022-10-16T01:06:38;13.70;99.90
11136;DHT22;5622;50.840;4.948;2022-10-16T01:09:14;13.70;99.90
11136;DHT22;5622;50.840;4.948;2022-10-16T01:11:48;13.70;99.90
11136;DHT22;5622;50.840;4.948;2022-10-16T01:14:25;13.70;99.90
11136;DHT22;5622;50.840;4.948;2022-10-16T01:16:57;13.80;99.90
11136;DHT22;5622;50.840;4.948;2022-10-16T01:19:37;13.70;99.90
11136;DHT22;5622;50.840;4.948;2022-10-16T01:22:08;13.70;99.90
11136;DHT22;5622;50.840;4.948;2022-10-16T01:24:39;13.70;99.90
11136;DHT22;5622;50.840;4.948;2022-10-16T01:27:15;13.70;99.90
11136;DHT22;5622;50.840;4.948;2022-10-16T01:29:50;13.80;99.90
11136;DHT22;5622;50.840;4.948;2022-10-16T01:32:23;13.80;99.90
11136;DHT22;5622;50.840;4.948;2022-10-16T01:34:55;13.80;99.90
11136;DHT22;5622;50.840;4.948;2022-10-16T01:37:31;13.80;99.90
11136;DHT22;5622;50.840;4.948;2022-10-16T01:40:00;13.80;99.90
11136;DHT22;5622;50.840;4.948;2022-10-16T01:42:34;13.80;99.90
11136;DHT22;5622;50.840;4.948;2022-10-16T01:45:02;13.80;99.90
11136;DHT22;5622;50.840;4.948;2022-10-16T01:47:32;13.80;99.90
11136;DHT22;5622;50.840;4.948;2022-10-16T01:50:02;13.70;99.90
11136;DHT22;5622;50.840;4.948;2022-10-16T01:52:32;13.80;99.90
11136;DHT22;5622;50.840;4.948;2022-10-16T01:55:02;13.80;99.90
11136;DHT22;5622;50.840;4.948;2022-10-16T01:57:33;13.70;99.90
11136;DHT22;5622;50.840;4.948;2022-10-16T02:00:05;13.80;99.90
11136;DHT22;5622;50.840;4.948;2022-10-16T02:02:34;13.80;99.90
11136;DHT22;5622;50.840;4.948;2022-10-16T02:05:06;13.80;99.90
11136;DHT22;5622;50.840;4.948;2022-10-16T02:07:35;13.70;99.90
11136;DHT22;5622;50.840;4.948;2022-10-16T02:10:03;13.80;99.90
11136;DHT22;5622;50.840;4.948;2022-10-16T02:12:33;13.80;99.90
11136;DHT22;5622;50.840;4.948;2022-10-16T02:15:03;13.70;99.90
11136;DHT22;5622;50.840;4.948;2022-10-16T02:17:30;13.80;99.90
11136;DHT22;5622;50.840;4.948;2022-10-16T02:19:58;13.70;99.90
11136;DHT22;5622;50.840;4.948;2022-10-16T02:22:28;13.70;99.90
11136;DHT22;5622;50.840;4.948;2022-10-16T02:24:59;13.70;99.90
11136;DHT22;5622;50.840;4.948;2022-10-16T02:27:35;13.70;99.90
11136;DHT22;5622;50.840;4.948;2022-10-16T02:30:07;13.80;99.90
11136;DHT22;5622;50.840;4.948;2022-10-16T02:32:39;13.80;99.90
11136;DHT22;5622;50.840;4.948;2022-10-16T02:35:07;13.80;99.90
11136;DHT22;5622;50.840;4.948;2022-10-16T02:37:35;13.80;99.90
11136;DHT22;5622;50.840;4.948;2022-10-16T02:40:05;13.70;99.90
11136;DHT22;5622;50.840;4.948;2022-10-16T02:42:36;13.80;99.90
11136;DHT22;5622;50.840;4.948;2022-10-16T02:45:04;13.70;99.90
11136;DHT22;5622;50.840;4.948;2022-10-16T02:47:31;13.70;99.90
11136;DHT22;5622;50.840;4.948;2022-10-16T02:49:58;13.70;99.90
11136;DHT22;5622;50.840;4.948;2022-10-16T02:52:26;13.70;99.90
11136;DHT22;5622;50.840;4.948;2022-10-16T02:54:53;13.70;99.90
11136;DHT22;5622;50.840;4.948;2022-10-16T02:57:20;13.70;99.90
11136;DHT22;5622;50.840;4.948;2022-10-16T02:59:48;13.70;99.90
11136;DHT22;5622;50.840;4.948;2022-10-16T03:02:15;13.70;99.90
11136;DHT22;5622;50.840;4.948;2022-10-16T03:04:43;13.70;99.90
11136;DHT22;5622;50.840;4.948;2022-10-16T03:07:10;13.70;99.90
11136;DHT22;5622;50.840;4.948;2022-10-16T03:09:37;13.70;99.90
11136;DHT22;5622;50.840;4.948;2022-10-16T03:12:04;13.70;99.90
11136;DHT22;5622;50.840;4.948;2022-10-16T03:14:32;13.70;99.90
11136;DHT22;5622;50.840;4.948;2022-10-16T03:17:00;13.70;99.90
11136;DHT22;5622;50.840;4.948;2022-10-16T03:19:27;13.70;99.90
11136;DHT22;5622;50.840;4.948;2022-10-16T03:21:54;13.70;99.90
11136;DHT22;5622;50.840;4.948;2022-10-16T03:24:21;13.70;99.90
11136;DHT22;5622;50.840;4.948;2022-10-16T03:26:49;13.70;99.90
11136;DHT22;5622;50.840;4.948;2022-10-16T03:29:16;13.70;99.90
11136;DHT22;5622;50.840;4.948;2022-10-16T03:31:43;13.70;99.90
11136;DHT22;5622;50.840;4.948;2022-10-16T03:34:11;13.70;99.90
11136;DHT22;5622;50.840;4.948;2022-10-16T03:36:38;13.70;99.90
11136;DHT22;5622;50.840;4.948;2022-10-16T03:39:05;13.70;99.90
11136;DHT22;5622;50.840;4.948;2022-10-16T03:41:32;13.70;99.90
11136;DHT22;5622;50.840;4.948;2022-10-16T03:43:59;13.70;99.90
11136;DHT22;5622;50.840;4.948;2022-10-16T03:46:26;13.70;99.90
11136;DHT22;5622;50.840;4.948;2022-10-16T03:48:53;13.70;99.90
11136;DHT22;5622;50.840;4.948;2022-10-16T03:51:22;13.70;99.90
11136;DHT22;5622;50.840;4.948;2022-10-16T03:53:49;13.70;99.90
11136;DHT22;5622;50.840;4.948;2022-10-16T03:56:16;13.70;99.90
11136;DHT22;5622;50.840;4.948;2022-10-16T03:58:44;13.70;99.90
11136;DHT22;5622;50.840;4.948;2022-10-16T04:01:11;13.60;99.90
11136;DHT22;5622;50.840;4.948;2022-10-16T04:03:38;13.70;99.90
11136;DHT22;5622;50.840;4.948;2022-10-16T04:06:05;13.60;99.90
11136;DHT22;5622;50.840;4.948;2022-10-16T04:08:33;13.60;99.90
11136;DHT22;5622;50.840;4.948;2022-10-16T04:11:02;13.60;99.90
11136;DHT22;5622;50.840;4.948;2022-10-16T04:13:29;13.60;99.90
11136;DHT22;5622;50.840;4.948;2022-10-16T04:15:56;13.60;99.90
11136;DHT22;5622;50.840;4.948;2022-10-16T04:18:24;13.60;99.90
11136;DHT22;5622;50.840;4.948;2022-10-16T04:20:52;13.60;99.90
11136;DHT22;5622;50.840;4.948;2022-10-16T04:23:19;13.50;99.90
11136;DHT22;5622;50.840;4.948;2022-10-16T04:25:50;13.50;99.90
11136;DHT22;5622;50.840;4.948;2022-10-16T04:28:17;13.60;99.90
11136;DHT22;5622;50.840;4.948;2022-10-16T04:30:44;13.50;99.90
11136;DHT22;5622;50.840;4.948;2022-10-16T04:33:11;13.50;99.90
11136;DHT22;5622;50.840;4.948;2022-10-16T04:35:39;13.50;99.90
11136;DHT22;5622;50.840;4.948;2022-10-16T04:38:06;13.50;99.90
11136;DHT22;5622;50.840;4.948;2022-10-16T04:40:34;13.50;99.90
11136;DHT22;5622;50.840;4.948;2022-10-16T04:43:03;13.50;99.90
11136;DHT22;5622;50.840;4.948;2022-10-16T04:45:31;13.50;99.90
11136;DHT22;5622;50.840;4.948;2022-10-16T04:47:58;13.50;99.90
11136;DHT22;5622;50.840;4.948;2022-10-16T04:50:26;13.50;99.90
11136;DHT22;5622;50.840;4.948;2022-10-16T04:52:53;13.50;99.90
11136;DHT22;5622;50.840;4.948;2022-10-16T04:55:20;13.50;99.90
11136;DHT22;5622;50.840;4.948;2022-10-16T04:57:47;13.50;99.90
11136;DHT22;5622;50.840;4.948;2022-10-16T05:00:15;13.50;99.90
11136;DHT22;5622;50.840;4.948;2022-10-16T05:02:42;13.50;99.90
11136;DHT22;5622;50.840;4.948;2022-10-16T05:05:09;13.50;99.90
11136;DHT22;5622;50.840;4.948;2022-10-16T05:07:37;13.50;99.90
11136;DHT22;5622;50.840;4.948;2022-10-16T05:10:05;13.50;99.90
11136;DHT22;5622;50.840;4.948;2022-10-16T05:12:32;13.50;99.90
11136;DHT22;5622;50.840;4.948;2022-10-16T05:14:59;13.50;99.90
11136;DHT22;5622;50.840;4.948;2022-10-16T05:17:27;13.40;99.90
11136;DHT22;5622;50.840;4.948;2022-10-16T05:19:54;13.40;99.90
11136;DHT22;5622;50.840;4.948;2022-10-16T05:22:21;13.40;99.90
11136;DHT22;5622;50.840;4.948;2022-10-16T05:24:48;13.40;99.90
11136;DHT22;5622;50.840;4.948;2022-10-16T05:27:15;13.40;99.90
11136;DHT22;5622;50.840;4.948;2022-10-16T05:29:45;13.40;99.90
11136;DHT22;5622;50.840;4.948;2022-10-16T05:32:13;13.40;99.90
11136;DHT22;5622;50.840;4.948;2022-10-16T05:34:42;13.40;99.90
11136;DHT22;5622;50.840;4.948;2022-10-16T05:37:09;13.40;99.90
11136;DHT22;5622;50.840;4.948;2022-10-16T05:39:37;13.40;99.90
11136;DHT22;5622;50.840;4.948;2022-10-16T05:42:04;13.50;99.90
11136;DHT22;5622;50.840;4.948;2022-10-16T05:44:32;13.50;99.90
11136;DHT22;5622;50.840;4.948;2022-10-16T05:46:59;13.50;99.90
11136;DHT22;5622;50.840;4.948;2022-10-16T05:49:27;13.50;99.90
11136;DHT22;5622;50.840;4.948;2022-10-16T05:51:55;13.50;99.90
11136;DHT22;5622;50.840;4.948;2022-10-16T05:54:22;13.50;99.90
11136;DHT22;5622;50.840;4.948;2022-10-16T05:56:49;13.50;99.90
11136;DHT22;5622;50.840;4.948;2022-10-16T05:59:17;13.50;99.90
11136;DHT22;5622;50.840;4.948;2022-10-16T06:01:44;13.50;99.90
11136;DHT22;5622;50.840;4.948;2022-10-16T06:04:11;13.50;99.90
11136;DHT22;5622;50.840;4.948;2022-10-16T06:06:38;13.40;99.90
11136;DHT22;5622;50.840;4.948;2022-10-16T06:09:09;13.40;99.90
11136;DHT22;5622;50.840;4.948;2022-10-16T06:11:36;13.40;99.90
11136;DHT22;5622;50.840;4.948;2022-10-16T06:14:04;13.40;99.90
11136;DHT22;5622;50.840;4.948;2022-10-16T06:16:33;13.40;99.90
11136;DHT22;5622;50.840;4.948;2022-10-16T06:19:00;13.40;99.90
11136;DHT22;5622;50.840;4.948;2022-10-16T06:21:29;13.40;99.90
11136;DHT22;5622;50.840;4.948;2022-10-16T06:23:57;13.40;99.90
11136;DHT22;5622;50.840;4.948;2022-10-16T06:26:27;13.40;99.90
11136;DHT22;5622;50.840;4.948;2022-10-16T06:28:56;13.40;99.90
11136;DHT22;5622;50.840;4.948;2022-10-16T06:31:24;13.50;99.90
11136;DHT22;5622;50.840;4.948;2022-10-16T06:33:53;13.40;99.90
11136;DHT22;5622;50.840;4.948;2022-10-16T06:36:22;13.40;99.90
11136;DHT22;5622;50.840;4.948;2022-10-16T06:38:49;13.40;99.90
11136;DHT22;5622;50.840;4.948;2022-10-16T06:41:18;13.40;99.90
11136;DHT22;5622;50.840;4.948;2022-10-16T06:43:47;13.40;99.90
11136;DHT22;5622;50.840;4.948;2022-10-16T06:46:15;13.40;99.90
11136;DHT22;5622;50.840;4.948;2022-10-16T06:48:43;13.40;99.90
11136;DHT22;5622;50.840;4.948;2022-10-16T06:51:11;13.40;99.90
11136;DHT22;5622;50.840;4.948;2022-10-16T06:53:40;13.40;99.90
11136;DHT22;5622;50.840;4.948;2022-10-16T06:56:08;13.40;99.90
11136;DHT22;5622;50.840;4.948;2022-10-16T06:58:35;13.40;99.90
11136;DHT22;5622;50.840;4.948;2022-10-16T07:01:04;13.40;99.90
11136;DHT22;5622;50.840;4.948;2022-10-16T07:03:32;13.40;99.90
11136;DHT22;5622;50.840;4.948;2022-10-16T07:06:01;13.50;99.90
11136;DHT22;5622;50.840;4.948;2022-10-16T07:08:31;13.50;99.90
11136;DHT22;5622;50.840;4.948;2022-10-16T07:10:59;13.50;99.90
11136;DHT22;5622;50.840;4.948;2022-10-16T07:13:27;13.50;99.90
11136;DHT22;5622;50.840;4.948;2022-10-16T07:15:54;13.60;99.90
11136;DHT22;5622;50.840;4.948;2022-10-16T07:18:23;13.60;99.90
11136;DHT22;5622;50.840;4.948;2022-10-16T07:20:52;13.60;99.90
11136;DHT22;5622;50.840;4.948;2022-10-16T07:23:20;13.70;99.90
11136;DHT22;5622;50.840;4.948;2022-10-16T07:25:53;13.70;99.90
11136;DHT22;5622;50.840;4.948;2022-10-16T07:28:21;13.70;99.90
11136;DHT22;5622;50.840;4.948;2022-10-16T07:30:50;13.70;99.90
11136;DHT22;5622;50.840;4.948;2022-10-16T07:33:17;13.70;99.90
11136;DHT22;5622;50.840;4.948;2022-10-16T07:35:50;13.80;99.90
11136;DHT22;5622;50.840;4.948;2022-10-16T07:38:17;13.80;99.90
11136;DHT22;5622;50.840;4.948;2022-10-16T07:40:45;13.80;99.90
11136;DHT22;5622;50.840;4.948;2022-10-16T07:43:12;13.90;99.90
11136;DHT22;5622;50.840;4.948;2022-10-16T07:45:47;13.90;99.90
11136;DHT22;5622;50.840;4.948;2022-10-16T07:48:15;14.00;99.90
11136;DHT22;5622;50.840;4.948;2022-10-16T07:50:42;14.00;99.90
11136;DHT22;5622;50.840;4.948;2022-10-16T07:53:11;14.30;99.90
11136;DHT22;5622;50.840;4.948;2022-10-16T07:55:38;14.40;99.90
11136;DHT22;5622;50.840;4.948;2022-10-16T07:58:05;14.70;99.90
11136;DHT22;5622;50.840;4.948;2022-10-16T08:00:33;14.80;99.90
11136;DHT22;5622;50.840;4.948;2022-10-16T08:03:00;14.90;99.90
11136;DHT22;5622;50.840;4.948;2022-10-16T08:05:27;15.00;99.90
11136;DHT22;5622;50.840;4.948;2022-10-16T08:07:55;15.10;99.90
11136;DHT22;5622;50.840;4.948;2022-10-16T08:10:25;15.10;99.90
11136;DHT22;5622;50.840;4.948;2022-10-16T08:12:53;15.10;99.90
11136;DHT22;5622;50.840;4.948;2022-10-16T08:15:21;15.10;99.90
11136;DHT22;5622;50.840;4.948;2022-10-16T08:17:55;15.10;99.90
11136;DHT22;5622;50.840;4.948;2022-10-16T08:20:22;15.10;99.90
11136;DHT22;5622;50.840;4.948;2022-10-16T08:22:49;15.10;99.90
11136;DHT22;5622;50.840;4.948;2022-10-16T08:25:16;15.10;99.90
11136;DHT22;5622;50.840;4.948;2022-10-16T08:27:45;15.10;99.90
11136;DHT22;5622;50.840;4.948;2022-10-16T08:30:12;15.10;99.90
11136;DHT22;5622;50.840;4.948;2022-10-16T08:32:40;15.10;99.90
11136;DHT22;5622;50.840;4.948;2022-10-16T08:35:08;15.10;99.90
11136;DHT22;5622;50.840;4.948;2022-10-16T08:37:36;15.10;99.90
11136;DHT22;5622;50.840;4.948;2022-10-16T08:40:05;15.10;99.90
11136;DHT22;5622;50.840;4.948;2022-10-16T08:42:53;15.20;99.90
11136;DHT22;5622;50.840;4.948;2022-10-16T08:45:34;15.30;99.90
11136;DHT22;5622;50.840;4.948;2022-10-16T08:48:13;15.30;99.90
11136;DHT22;5622;50.840;4.948;2022-10-16T08:50:42;15.40;99.90
11136;DHT22;5622;50.840;4.948;2022-10-16T08:53:15;15.30;99.90
11136;DHT22;5622;50.840;4.948;2022-10-16T08:55:46;15.40;99.90
11136;DHT22;5622;50.840;4.948;2022-10-16T08:58:16;15.40;99.90
11136;DHT22;5622;50.840;4.948;2022-10-16T09:00:46;15.40;99.90
11136;DHT22;5622;50.840;4.948;2022-10-16T09:03:21;15.40;99.90
11136;DHT22;5622;50.840;4.948;2022-10-16T09:06:03;15.30;99.90
11136;DHT22;5622;50.840;4.948;2022-10-16T09:08:40;15.30;99.90
11136;DHT22;5622;50.840;4.948;2022-10-16T09:11:17;15.30;99.90
11136;DHT22;5622;50.840;4.948;2022-10-16T09:13:53;15.30;99.90
11136;DHT22;5622;50.840;4.948;2022-10-16T09:16:25;15.30;99.90
11136;DHT22;5622;50.840;4.948;2022-10-16T09:18:58;15.30;99.90
11136;DHT22;5622;50.840;4.948;2022-10-16T09:21:29;15.30;99.90
11136;DHT22;5622;50.840;4.948;2022-10-16T09:23:59;15.30;99.90
11136;DHT22;5622;50.840;4.948;2022-10-16T09:26:26;15.40;99.90
11136;DHT22;5622;50.840;4.948;2022-10-16T09:28:55;15.40;99.90
11136;DHT22;5622;50.840;4.948;2022-10-16T09:31:22;15.40;99.90
11136;DHT22;5622;50.840;4.948;2022-10-16T09:33:53;15.40;99.90
11136;DHT22;5622;50.840;4.948;2022-10-16T09:36:23;15.50;99.90
11136;DHT22;5622;50.840;4.948;2022-10-16T09:39:03;15.50;99.90
11136;DHT22;5622;50.840;4.948;2022-10-16T09:41:33;15.50;99.90
11136;DHT22;5622;50.840;4.948;2022-10-16T09:44:04;15.60;99.90
11136;DHT22;5622;50.840;4.948;2022-10-16T09:46:34;15.60;99.90
11136;DHT22;5622;50.840;4.948;2022-10-16T09:49:03;15.60;99.90
11136;DHT22;5622;50.840;4.948;2022-10-16T09:51:32;15.60;99.90
11136;DHT22;5622;50.840;4.948;2022-10-16T09:54:11;15.60;99.90
11136;DHT22;5622;50.840;4.948;2022-10-16T09:56:39;15.60;99.90
11136;DHT22;5622;50.840;4.948;2022-10-16T09:59:12;15.70;99.90
11136;DHT22;5622;50.840;4.948;2022-10-16T10:01:41;15.70;99.90
11136;DHT22;5622;50.840;4.948;2022-10-16T10:04:10;15.70;99.90
11136;DHT22;5622;50.840;4.948;2022-10-16T10:06:41;15.80;99.90
11136;DHT22;5622;50.840;4.948;2022-10-16T10:09:21;16.00;99.90
11136;DHT22;5622;50.840;4.948;2022-10-16T10:11:50;16.20;99.90
11136;DHT22;5622;50.840;4.948;2022-10-16T10:14:24;16.50;99.90
11136;DHT22;5622;50.840;4.948;2022-10-16T10:17:01;16.60;99.90
11136;DHT22;5622;50.840;4.948;2022-10-16T10:19:29;16.70;99.90
11136;DHT22;5622;50.840;4.948;2022-10-16T10:21:55;16.80;99.90
11136;DHT22;5622;50.840;4.948;2022-10-16T10:24:23;16.90;99.90
11136;DHT22;5622;50.840;4.948;2022-10-16T10:26:56;17.00;99.90
11136;DHT22;5622;50.840;4.948;2022-10-16T10:29:35;17.20;99.90
11136;DHT22;5622;50.840;4.948;2022-10-16T10:32:14;17.30;99.90
11136;DHT22;5622;50.840;4.948;2022-10-16T10:34:54;17.30;99.90
11136;DHT22;5622;50.840;4.948;2022-10-16T10:37:35;17.30;99.90
11136;DHT22;5622;50.840;4.948;2022-10-16T10:40:11;17.50;99.90
11136;DHT22;5622;50.840;4.948;2022-10-16T10:42:47;17.60;99.90
11136;DHT22;5622;50.840;4.948;2022-10-16T10:45:23;17.60;99.90
11136;DHT22;5622;50.840;4.948;2022-10-16T10:48:12;17.60;99.90
11136;DHT22;5622;50.840;4.948;2022-10-16T10:50:45;17.60;99.90
11136;DHT22;5622;50.840;4.948;2022-10-16T10:53:22;17.50;99.90
11136;DHT22;5622;50.840;4.948;2022-10-16T10:55:57;17.40;99.90
11136;DHT22;5622;50.840;4.948;2022-10-16T11:01:26;17.30;99.90
11136;DHT22;5622;50.840;4.948;2022-10-16T11:04:11;17.20;99.90
11136;DHT22;5622;50.840;4.948;2022-10-16T11:06:44;17.20;99.90
11136;DHT22;5622;50.840;4.948;2022-10-16T11:09:15;17.10;99.90
11136;DHT22;5622;50.840;4.948;2022-10-16T11:11:46;17.10;99.90
11136;DHT22;5622;50.840;4.948;2022-10-16T11:14:18;17.00;99.90
11136;DHT22;5622;50.840;4.948;2022-10-16T11:16:51;17.00;99.90
11136;DHT22;5622;50.840;4.948;2022-10-16T11:19:28;17.00;99.90
11136;DHT22;5622;50.840;4.948;2022-10-16T11:22:02;17.00;99.90
11136;DHT22;5622;50.840;4.948;2022-10-16T11:24:37;16.90;99.90
11136;DHT22;5622;50.840;4.948;2022-10-16T11:27:10;17.00;99.90
11136;DHT22;5622;50.840;4.948;2022-10-16T11:29:45;17.00;99.90
11136;DHT22;5622;50.840;4.948;2022-10-16T11:32:21;17.00;99.90
11136;DHT22;5622;50.840;4.948;2022-10-16T11:34:52;17.00;99.90
11136;DHT22;5622;50.840;4.948;2022-10-16T11:37:24;17.00;99.90
11136;DHT22;5622;50.840;4.948;2022-10-16T11:39:54;17.10;99.90
11136;DHT22;5622;50.840;4.948;2022-10-16T11:42:30;17.10;99.90
11136;DHT22;5622;50.840;4.948;2022-10-16T11:45:04;17.10;99.90
11136;DHT22;5622;50.840;4.948;2022-10-16T11:47:40;17.10;99.90
11136;DHT22;5622;50.840;4.948;2022-10-16T11:50:20;17.10;99.90
11136;DHT22;5622;50.840;4.948;2022-10-16T11:52:54;17.10;99.90
11136;DHT22;5622;50.840;4.948;2022-10-16T11:55:26;17.10;99.90
11136;DHT22;5622;50.840;4.948;2022-10-16T11:57:59;17.10;99.90
11136;DHT22;5622;50.840;4.948;2022-10-16T12:00:31;17.00;99.90
11136;DHT22;5622;50.840;4.948;2022-10-16T12:03:11;17.10;99.90
11136;DHT22;5622;50.840;4.948;2022-10-16T12:05:52;17.10;99.90
11136;DHT22;5622;50.840;4.948;2022-10-16T12:08:22;17.00;99.90
11136;DHT22;5622;50.840;4.948;2022-10-16T12:10:49;17.00;99.90
11136;DHT22;5622;50.840;4.948;2022-10-16T12:13:33;17.10;99.90
11136;DHT22;5622;50.840;4.948;2022-10-16T12:19:12;17.10;99.90
11136;DHT22;5622;50.840;4.948;2022-10-16T12:21:40;17.20;99.90
11136;DHT22;5622;50.840;4.948;2022-10-16T12:24:28;17.10;99.90
11136;DHT22;5622;50.840;4.948;2022-10-16T12:26:57;17.20;99.90
11136;DHT22;5622;50.840;4.948;2022-10-16T12:29:37;17.20;99.90
11136;DHT22;5622;50.840;4.948;2022-10-16T12:35:48;17.30;99.90
11136;DHT22;5622;50.840;4.948;2022-10-16T12:38:18;17.30;99.90
11136;DHT22;5622;50.840;4.948;2022-10-16T12:40:47;17.40;99.90
11136;DHT22;5622;50.840;4.948;2022-10-16T12:43:27;17.40;99.90
11136;DHT22;5622;50.840;4.948;2022-10-16T12:46:22;17.30;99.90
11136;DHT22;5622;50.840;4.948;2022-10-16T12:48:50;17.40;99.90
11136;DHT22;5622;50.840;4.948;2022-10-16T12:51:25;17.40;99.90
11136;DHT22;5622;50.840;4.948;2022-10-16T12:53:59;17.40;99.90
11136;DHT22;5622;50.840;4.948;2022-10-16T12:56:36;17.40;99.90
11136;DHT22;5622;50.840;4.948;2022-10-16T12:59:13;17.40;99.90
11136;DHT22;5622;50.840;4.948;2022-10-16T13:01:56;17.40;99.90
11136;DHT22;5622;50.840;4.948;2022-10-16T13:04:47;17.40;99.90
11136;DHT22;5622;50.840;4.948;2022-10-16T13:07:35;17.40;99.90
11136;DHT22;5622;50.840;4.948;2022-10-16T13:10:14;17.40;99.90
11136;DHT22;5622;50.840;4.948;2022-10-16T13:12:59;17.40;99.90
11136;DHT22;5622;50.840;4.948;2022-10-16T13:15:38;17.30;99.90
11136;DHT22;5622;50.840;4.948;2022-10-16T13:18:13;17.40;99.90
11136;DHT22;5622;50.840;4.948;2022-10-16T13:20:56;17.30;99.90
11136;DHT22;5622;50.840;4.948;2022-10-16T13:23:31;17.40;99.90
11136;DHT22;5622;50.840;4.948;2022-10-16T13:26:14;17.40;99.90
11136;DHT22;5622;50.840;4.948;2022-10-16T13:28:43;17.40;99.90
11136;DHT22;5622;50.840;4.948;2022-10-16T13:31:17;17.40;99.90
11136;DHT22;5622;50.840;4.948;2022-10-16T13:33:47;17.40;99.90
11136;DHT22;5622;50.840;4.948;2022-10-16T13:36:21;17.40;99.90
11136;DHT22;5622;50.840;4.948;2022-10-16T13:39:00;17.40;99.90
11136;DHT22;5622;50.840;4.948;2022-10-16T13:41:28;17.30;99.90
11136;DHT22;5622;50.840;4.948;2022-10-16T13:43:56;17.30;99.90
11136;DHT22;5622;50.840;4.948;2022-10-16T13:46:25;17.30;99.90
11136;DHT22;5622;50.840;4.948;2022-10-16T13:48:59;17.30;99.90
11136;DHT22;5622;50.840;4.948;2022-10-16T13:51:27;17.30;99.90
11136;DHT22;5622;50.840;4.948;2022-10-16T13:53:57;17.30;99.90
11136;DHT22;5622;50.840;4.948;2022-10-16T13:56:26;17.40;99.90
11136;DHT22;5622;50.840;4.948;2022-10-16T13:59:00;17.40;99.90
11136;DHT22;5622;50.840;4.948;2022-10-16T14:01:29;17.40;99.90
11136;DHT22;5622;50.840;4.948;2022-10-16T14:04:02;17.50;99.90
11136;DHT22;5622;50.840;4.948;2022-10-16T14:06:30;17.40;99.90
11136;DHT22;5622;50.840;4.948;2022-10-16T14:09:02;17.50;99.90
11136;DHT22;5622;50.840;4.948;2022-10-16T14:11:32;17.50;99.90
11136;DHT22;5622;50.840;4.948;2022-10-16T14:14:00;17.50;99.90
11136;DHT22;5622;50.840;4.948;2022-10-16T14:16:30;17.50;99.90
11136;DHT22;5622;50.840;4.948;2022-10-16T14:18:59;17.50;99.90
11136;DHT22;5622;50.840;4.948;2022-10-16T14:21:28;17.50;99.90
11136;DHT22;5622;50.840;4.948;2022-10-16T14:23:55;17.50;99.90
11136;DHT22;5622;50.840;4.948;2022-10-16T14:32:20;17.50;99.90
11136;DHT22;5622;50.840;4.948;2022-10-16T14:33:21;17.50;99.90
11136;DHT22;5622;50.840;4.948;2022-10-16T14:36:00;17.50;99.90
11136;DHT22;5622;50.840;4.948;2022-10-16T14:38:48;17.40;99.90
11136;DHT22;5622;50.840;4.948;2022-10-16T14:41:20;17.40;99.90
11136;DHT22;5622;50.840;4.948;2022-10-16T14:43:51;17.40;99.90
11136;DHT22;5622;50.840;4.948;2022-10-16T14:46:21;17.50;99.90
11136;DHT22;5622;50.840;4.948;2022-10-16T14:48:57;17.40;99.90
11136;DHT22;5622;50.840;4.948;2022-10-16T14:51:26;17.40;99.90
11136;DHT22;5622;50.840;4.948;2022-10-16T14:53:53;17.40;99.90
11136;DHT22;5622;50.840;4.948;2022-10-16T14:56:22;17.40;99.90
11136;DHT22;5622;50.840;4.948;2022-10-16T14:58:51;17.40;99.90
11136;DHT22;5622;50.840;4.948;2022-10-16T15:01:18;17.40;99.90
11136;DHT22;5622;50.840;4.948;2022-10-16T15:03:46;17.40;99.90
11136;DHT22;5622;50.840;4.948;2022-10-16T15:06:15;17.40;99.90
11136;DHT22;5622;50.840;4.948;2022-10-16T15:08:42;17.40;99.90
11136;DHT22;5622;50.840;4.948;2022-10-16T15:11:11;17.40;99.90
11136;DHT22;5622;50.840;4.948;2022-10-16T15:13:39;17.40;99.90
11136;DHT22;5622;50.840;4.948;2022-10-16T15:16:09;17.40;99.90
11136;DHT22;5622;50.840;4.948;2022-10-16T15:18:37;17.40;99.90
11136;DHT22;5622;50.840;4.948;2022-10-16T15:21:04;17.40;99.90
11136;DHT22;5622;50.840;4.948;2022-10-16T15:23:33;17.40;99.90
11136;DHT22;5622;50.840;4.948;2022-10-16T15:26:00;17.30;99.90
11136;DHT22;5622;50.840;4.948;2022-10-16T15:28:27;17.30;99.90
11136;DHT22;5622;50.840;4.948;2022-10-16T15:30:56;17.30;99.90
11136;DHT22;5622;50.840;4.948;2022-10-16T15:33:25;17.20;99.90
11136;DHT22;5622;50.840;4.948;2022-10-16T15:35:55;17.20;99.90
11136;DHT22;5622;50.840;4.948;2022-10-16T15:38:23;17.20;99.90
11136;DHT22;5622;50.840;4.948;2022-10-16T15:40:51;17.10;99.90
11136;DHT22;5622;50.840;4.948;2022-10-16T15:43:18;17.10;99.90
11136;DHT22;5622;50.840;4.948;2022-10-16T15:45:57;17.10;99.90
11136;DHT22;5622;50.840;4.948;2022-10-16T15:48:25;17.10;99.90
11136;DHT22;5622;50.840;4.948;2022-10-16T15:50:52;17.00;99.90
11136;DHT22;5622;50.840;4.948;2022-10-16T15:53:19;17.00;99.90
11136;DHT22;5622;50.840;4.948;2022-10-16T15:55:46;17.00;99.90
11136;DHT22;5622;50.840;4.948;2022-10-16T15:58:15;16.90;99.90
11136;DHT22;5622;50.840;4.948;2022-10-16T16:00:42;16.90;99.90
11136;DHT22;5622;50.840;4.948;2022-10-16T16:03:09;16.80;99.90
11136;DHT22;5622;50.840;4.948;2022-10-16T16:05:38;16.80;99.90
11136;DHT22;5622;50.840;4.948;2022-10-16T16:08:05;16.70;99.90
11136;DHT22;5622;50.840;4.948;2022-10-16T16:10:32;16.70;99.90
11136;DHT22;5622;50.840;4.948;2022-10-16T16:12:59;16.70;99.90
11136;DHT22;5622;50.840;4.948;2022-10-16T16:15:27;16.70;99.90
11136;DHT22;5622;50.840;4.948;2022-10-16T16:17:54;16.60;99.90
11136;DHT22;5622;50.840;4.948;2022-10-16T16:20:23;16.60;99.90
11136;DHT22;5622;50.840;4.948;2022-10-16T16:22:51;16.60;99.90
11136;DHT22;5622;50.840;4.948;2022-10-16T16:25:19;16.60;99.90